Arneckeville, Texas
Current Conditions -  °F | °C
As of 3:51 AM on Sunday 26 Oct 2014 (Local Time) from KVCT Reporting Station
Moderate Fog Moderate Fog  
Wind Chill: 58°   Ceiling: Unl
Heat Index: 58°   Visibility: 0.25mi
Dew Point: 56°   Wind: 0mph
Humidity: 93%   Direction: NA
Pressure: 30.06"   Gusts: NA
Location:  29.0941°N, 97.191°W
Report Text: KVCT 260851Z AUTO 00000KT 1/4SM FG CLR 14/13 A3006 RMK AO2 SLP176 T01440133 58007
Loading
Personal Weather Stations






























Interactive Weather Map
Tropical Storm Tracking
New forecast layout! Learn more

10-Day Weather Forecast

Advertisements
Track Severe Weather on mobile